Nrc Patriot II — WDA8587 — position and weather

sailwx.info

Track history (hours):
 
Tides and Currents Weather Stations Pressure Air Temp Water Temp Dewpoint Dewpoint Depression Visibility Wind Speed Wind Dir Waves Ship Positions

Nrc Patriot II

Owner: National Response Corporation, HOUSTON, TX. More information available from US FCC via Universal Licensing System and Coast Guard Vessel Documentation Center.

Last reported at 2014-Oct-24 14:33 UTC. Time now 2014-Oct-24 15:28 UTC.
Position N 33°44' W 118°16'.

Length 30 m; draft 3.5 m.

Type: Port tender. MMSI: 366855940.

Date/timePositionNaut miles runAvg speedWind from/ knotsBaromVisibWave heightAir tempDewpointWater temp
2014-Oct-24 14:33N 33°44' W 118°16'0 0.1
2014-Oct-24 13:33N 33°44' W 118°16'7 6.9
2014-Oct-24 12:33N 33°44' W 118°08'6 5.9
2014-Oct-24 11:33N 33°40' W 118°03'0 0.2
2014-Oct-24 10:33N 33°40' W 118°03'0 0.0
2014-Oct-24 09:33N 33°40' W 118°03'0 0.0
2014-Oct-24 08:33N 33°40' W 118°03'0 0.1
2014-Oct-24 07:33N 33°40' W 118°03'0 0.1
2014-Oct-24 06:33N 33°40' W 118°03'0 0.2
2014-Oct-24 05:33N 33°40' W 118°03'0 0.1
2014-Oct-24 04:33N 33°40' W 118°03'3 2.9
2014-Oct-24 03:33N 33°42' W 118°05'9 9.1
2014-Oct-24 02:33N 33°43' W 118°16'1 0.9
2014-Oct-24 01:33N 33°44' W 118°16'0 0.0
2014-Oct-24 00:33N 33°44' W 118°16'0 0.0
2014-Oct-23 23:34N 33°44' W 118°16'3 2.8
2014-Oct-23 22:34N 33°43' W 118°13'9 9.0
2014-Oct-23 21:34N 33°40' W 118°03'0 0.3
2014-Oct-23 20:33N 33°40' W 118°03'0 0.0
2014-Oct-23 19:33N 33°40' W 118°03'0 0.0
2014-Oct-23 18:10N 33°40' W 118°03'0 0.0
2014-Oct-23 17:33N 33°40' W 118°03'0 0.1
2014-Oct-23 16:32N 33°40' W 118°03'0 0.2
2014-Oct-23 15:34N 33°40' W 118°03'7 6.6
2014-Oct-23 14:34N 33°43' W 118°10'5 5.5
2014-Oct-23 13:33N 33°44' W 118°16'0 0.0
2014-Oct-23 12:33N 33°44' W 118°16'4 4.3
2014-Oct-23 11:33N 33°44' W 118°11'8 8.0
2014-Oct-23 10:33N 33°40' W 118°03'0 0.1
2014-Oct-23 09:33N 33°40' W 118°03'0 0.1
2014-Oct-23 08:33N 33°40' W 118°03'0 0.0
2014-Oct-23 07:33N 33°40' W 118°03'0 0.1
2014-Oct-23 06:33N 33°40' W 118°03'8 7.6
2014-Oct-23 05:33N 33°44' W 118°11'5 4.7
2014-Oct-23 04:33N 33°44' W 118°16'0 0.0
2014-Oct-23 03:33N 33°44' W 118°16'3 3.3
2014-Oct-23 02:33N 33°44' W 118°12'9 8.9
2014-Oct-23 01:33N 33°40' W 118°03'0 0.0
2014-Oct-23 00:33N 33°40' W 118°03'0 0.1
2014-Oct-22 23:33N 33°40' W 118°03'0 0.0
2014-Oct-22 22:33N 33°40' W 118°03'0 0.0
2014-Oct-22 21:32N 33°40' W 118°03'0 0.0
2014-Oct-22 20:33N 33°40' W 118°03'0 0.0
2014-Oct-22 17:33N 33°40' W 118°03'4 4.3
2014-Oct-22 16:32N 33°42' W 118°07'8 7.5
2014-Oct-22 15:30N 33°44' W 118°16'0 0.0
2014-Oct-22 14:32N 33°44' W 118°16'4 3.7
2014-Oct-22 13:33N 33°44' W 118°12'9 7.3
2014-Oct-22 12:23N 33°40' W 118°03'0 0.1
2014-Oct-22 11:22N 33°40' W 118°03'0 0.1
2014-Oct-22 10:33N 33°40' W 118°03'0 0.0
2014-Oct-22 09:33N 33°40' W 118°03'0 0.0
2014-Oct-22 08:32N 33°40' W 118°03'0 0.0
2014-Oct-22 07:33N 33°40' W 118°03'0 0.0
2014-Oct-22 06:33N 33°40' W 118°03'0 0.1
2014-Oct-22 05:33N 33°40' W 118°03'0 0.0
2014-Oct-22 04:33N 33°40' W 118°03'0 0.1
2014-Oct-22 03:33N 33°40' W 118°03'7 7.1
2014-Oct-22 02:33N 33°44' W 118°10'5 5.1
2014-Oct-22 01:30N 33°44' W 118°16'0 0.0
2014-Oct-22 00:33N 33°44' W 118°16'0 0.4
2014-Oct-21 23:33N 33°44' W 118°16'8 8.4
2014-Oct-21 22:33N 33°42' W 118°06'4 3.6
2014-Oct-21 21:33N 33°40' W 118°03'0 0.0
2014-Oct-21 20:24N 33°40' W 118°03'0 0.1
2014-Oct-21 19:30N 33°40' W 118°03'3 1.1
2014-Oct-21 17:07N 33°41' W 118°05'5 9.8
2014-Oct-21 16:33N 33°44' W 118°11'4 2.0
2014-Oct-21 14:30N 33°44' W 118°16'7 7.6
2014-Oct-21 13:31N 33°43' W 118°08'5 4.9
2014-Oct-21 12:28N 33°40' W 118°03'0 0.1
2014-Oct-21 11:28N 33°40' W 118°03'0 0.0
2014-Oct-21 10:21N 33°40' W 118°03'0 0.1
2014-Oct-21 09:31N 33°40' W 118°03'0 0.2
2014-Oct-21 08:32N 33°40' W 118°03'8 8.6
2014-Oct-21 07:33N 33°44' W 118°12'4 3.1
2014-Oct-21 06:18N 33°44' W 118°16'0 0.0
2014-Oct-21 05:27N 33°44' W 118°16'7 7.6
2014-Oct-21 04:33N 33°44' W 118°08'6 5.4
2014-Oct-21 03:26N 33°40' W 118°03'0 0.0
2014-Oct-21 02:13N 33°40' W 118°03'6 1.6
2014-Oct-20 22:33N 33°43' W 118°09'6 3.2
2014-Oct-20 20:33N 33°44' W 118°16'0 0.0
2014-Oct-20 19:22N 33°44' W 118°16'0 0.0
2014-Oct-20 18:33N 33°44' W 118°16'0 0.0
2014-Oct-20 13:32N 33°44' W 118°16'4 3.3
2014-Oct-20 12:18N 33°44' W 118°11'8 9.8
2014-Oct-20 11:32N 33°40' W 118°03'1 0.6
2014-Oct-20 10:33N 33°40' W 118°03'0 0.0
2014-Oct-20 09:33N 33°40' W 118°03'0 0.0
2014-Oct-20 08:33N 33°40' W 118°03'0 0.0
2014-Oct-20 07:33N 33°40' W 118°03'0 0.0
2014-Oct-20 05:13N 33°40' W 118°03'3 4.7
2014-Oct-20 04:30N 33°41' W 118°06'8 8.8
2014-Oct-20 03:33N 33°43' W 118°16'1 0.8
2014-Oct-20 02:33N 33°44' W 118°16'0 0.1
2014-Oct-20 01:33N 33°44' W 118°16'4 3.3
2014-Oct-20 00:26N 33°44' W 118°12'7 8.4
2014-Oct-19 23:33N 33°40' W 118°04'1 0.2
2014-Oct-19 18:33N 33°40' W 118°03'0 0.1
2014-Oct-19 17:06N 33°40' W 118°03'5 8.7
2014-Oct-19 16:33N 33°43' W 118°07'8 7.7
2014-Oct-19 15:32N 33°44' W 118°16'0 0.1
2014-Oct-19 14:31N 33°44' W 118°16'0 0.0
2014-Oct-19 12:12N 33°44' W 118°16'4 6.5
2014-Oct-19 11:33N 33°44' W 118°11'8 7.3
2014-Oct-19 10:27N 33°40' W 118°03'0 0.1
2014-Oct-19 09:30N 33°40' W 118°03'0 0.0
2014-Oct-19 08:33N 33°40' W 118°03'0 0.0
2014-Oct-19 07:33N 33°40' W 118°03'0 0.0
2014-Oct-19 06:32N 33°40' W 118°03'0 0.0
2014-Oct-19 05:29N 33°40' W 118°03'10 4.9
2014-Oct-19 03:30N 33°42' W 118°14'3 3.0
2014-Oct-19 02:32N 33°44' W 118°16'0 0.0
2014-Oct-19 01:32N 33°44' W 118°16'5 4.6
2014-Oct-19 00:33N 33°44' W 118°11'8 6.5
2014-Oct-18 23:20N 33°40' W 118°03'0 0.0
2014-Oct-18 18:08N 33°40' W 118°03'4 6.4
2014-Oct-18 17:33N 33°42' W 118°06'8 8.0
2014-Oct-18 16:30N 33°43' W 118°16'1 0.4
2014-Oct-18 14:25N 33°44' W 118°16'0 0.0
2014-Oct-18 13:25N 33°44' W 118°16'6 7.4
2014-Oct-18 12:33N 33°42' W 118°09'6 4.4
2014-Oct-18 11:16N 33°40' W 118°03'0 0.0
2014-Oct-18 10:32N 33°40' W 118°03'0 0.0
2014-Oct-18 09:25N 33°40' W 118°03'0 0.0
2014-Oct-18 08:18N 33°40' W 118°03'0 0.0
2014-Oct-18 06:19N 33°40' W 118°03'0 0.0
2014-Oct-18 05:24N 33°40' W 118°03'8 9.3
2014-Oct-18 04:33N 33°43' W 118°11'4 1.8
2014-Oct-18 02:09N 33°44' W 118°16'0 0.1
2014-Oct-18 01:24N 33°44' W 118°16'6 7.5
2014-Oct-18 00:33N 33°44' W 118°09'6 1.0
2014-Oct-17 18:18N 33°40' W 118°03'5 7.2
2014-Oct-17 17:33N 33°43' W 118°08'7 7.1
2014-Oct-17 16:32N 33°44' W 118°16'0 0.1
2014-Oct-17 15:33N 33°44' W 118°16'0 0.0
2014-Oct-17 02:16N 33°44' W 118°16'3 3.5
2014-Oct-17 01:29N 33°43' W 118°13'8 8.9
2014-Oct-17 00:33N 33°41' W 118°04'1 0.8
2014-Oct-16 23:05N 33°40' W 118°03'0 0.0
2014-Oct-16 21:29N 33°40' W 118°03'0 0.1
2014-Oct-16 20:31N 33°40' W 118°03'2 2.5
2014-Oct-16 19:33N 33°41' W 118°05'9 8.1
2014-Oct-16 18:24N 33°43' W 118°16'1 1.1
2014-Oct-16 17:32N 33°44' W 118°16'0 0.0
2014-Oct-16 16:33N 33°44' W 118°16'0 0.0
2014-Oct-16 09:23N 33°44' W 118°16'12 5.7
2014-Oct-16 07:17N 33°40' W 118°03'0 0.0
2014-Oct-16 06:31N 33°40' W 118°03'0 0.0
2014-Oct-16 05:26N 33°40' W 118°03'12 6.3
2014-Oct-16 03:32N 33°44' W 118°16'0 0.1
2014-Oct-16 01:32N 33°44' W 118°16'8 7.9
2014-Oct-16 00:33N 33°43' W 118°07'5 1.0
2014-Oct-15 19:29N 33°40' W 118°03'3 2.8
2014-Oct-15 18:33N 33°41' W 118°05'8 7.7
2014-Oct-15 17:32N 33°43' W 118°14'2 1.9
2014-Oct-15 16:31N 33°44' W 118°16'1 0.2
2014-Oct-15 13:19N 33°43' W 118°16'12 6.7
2014-Oct-15 11:32N 33°40' W 118°03'8 0.8
2014-Oct-15 01:23N 33°44' W 118°12'8 1.7
2014-Oct-14 20:28N 33°40' W 118°03'7 8.0
2014-Oct-14 19:33N 33°44' W 118°10'5 5.0
2014-Oct-14 18:29N 33°44' W 118°16'  
Track history (hours):
 
Tides and Currents Weather Stations Pressure Air Temp Water Temp Dewpoint Dewpoint Depression Visibility Wind Speed Wind Dir Waves Ship Positions

Nrc Patriot II

Owner: National Response Corporation, HOUSTON, TX. More information available from US FCC via Universal Licensing System and Coast Guard Vessel Documentation Center.

Last reported at 2014-Oct-24 14:33 UTC. Time now 2014-Oct-24 15:28 UTC.
Position N 33°44' W 118°16'.

Length 30 m; draft 3.5 m.

Type: Port tender. MMSI: 366855940.

Date/timePositionNaut miles runAvg speedWind from/ knotsBaromVisibWave heightAir tempDewpointWater temp
2014-Oct-24 14:33N 33°44' W 118°16'0 0.1
2014-Oct-24 13:33N 33°44' W 118°16'7 6.9
2014-Oct-24 12:33N 33°44' W 118°08'6 5.9
2014-Oct-24 11:33N 33°40' W 118°03'0 0.2
2014-Oct-24 10:33N 33°40' W 118°03'0 0.0
2014-Oct-24 09:33N 33°40' W 118°03'0 0.0
2014-Oct-24 08:33N 33°40' W 118°03'0 0.1
2014-Oct-24 07:33N 33°40' W 118°03'0 0.1
2014-Oct-24 06:33N 33°40' W 118°03'0 0.2
2014-Oct-24 05:33N 33°40' W 118°03'0 0.1
2014-Oct-24 04:33N 33°40' W 118°03'3 2.9
2014-Oct-24 03:33N 33°42' W 118°05'9 9.1
2014-Oct-24 02:33N 33°43' W 118°16'1 0.9
2014-Oct-24 01:33N 33°44' W 118°16'0 0.0
2014-Oct-24 00:33N 33°44' W 118°16'0 0.0
2014-Oct-23 23:34N 33°44' W 118°16'3 2.8
2014-Oct-23 22:34N 33°43' W 118°13'9 9.0
2014-Oct-23 21:34N 33°40' W 118°03'0 0.3
2014-Oct-23 20:33N 33°40' W 118°03'0 0.0
2014-Oct-23 19:33N 33°40' W 118°03'0 0.0
2014-Oct-23 18:10N 33°40' W 118°03'0 0.0
2014-Oct-23 17:33N 33°40' W 118°03'0 0.1
2014-Oct-23 16:32N 33°40' W 118°03'0 0.2
2014-Oct-23 15:34N 33°40' W 118°03'7 6.6
2014-Oct-23 14:34N 33°43' W 118°10'5 5.5
2014-Oct-23 13:33N 33°44' W 118°16'0 0.0
2014-Oct-23 12:33N 33°44' W 118°16'4 4.3
2014-Oct-23 11:33N 33°44' W 118°11'8 8.0
2014-Oct-23 10:33N 33°40' W 118°03'0 0.1
2014-Oct-23 09:33N 33°40' W 118°03'0 0.1
2014-Oct-23 08:33N 33°40' W 118°03'0 0.0
2014-Oct-23 07:33N 33°40' W 118°03'0 0.1
2014-Oct-23 06:33N 33°40' W 118°03'8 7.6
2014-Oct-23 05:33N 33°44' W 118°11'5 4.7
2014-Oct-23 04:33N 33°44' W 118°16'0 0.0
2014-Oct-23 03:33N 33°44' W 118°16'3 3.3
2014-Oct-23 02:33N 33°44' W 118°12'9 8.9
2014-Oct-23 01:33N 33°40' W 118°03'0 0.0
2014-Oct-23 00:33N 33°40' W 118°03'0 0.1
2014-Oct-22 23:33N 33°40' W 118°03'0 0.0
2014-Oct-22 22:33N 33°40' W 118°03'0 0.0
2014-Oct-22 21:32N 33°40' W 118°03'0 0.0
2014-Oct-22 20:33N 33°40' W 118°03'0 0.0
2014-Oct-22 17:33N 33°40' W 118°03'4 4.3
2014-Oct-22 16:32N 33°42' W 118°07'8 7.5
2014-Oct-22 15:30N 33°44' W 118°16'0 0.0
2014-Oct-22 14:32N 33°44' W 118°16'4 3.7
2014-Oct-22 13:33N 33°44' W 118°12'9 7.3
2014-Oct-22 12:23N 33°40' W 118°03'0 0.1
2014-Oct-22 11:22N 33°40' W 118°03'0 0.1
2014-Oct-22 10:33N 33°40' W 118°03'0 0.0
2014-Oct-22 09:33N 33°40' W 118°03'0 0.0
2014-Oct-22 08:32N 33°40' W 118°03'0 0.0
2014-Oct-22 07:33N 33°40' W 118°03'0 0.0
2014-Oct-22 06:33N 33°40' W 118°03'0 0.1
2014-Oct-22 05:33N 33°40' W 118°03'0 0.0
2014-Oct-22 04:33N 33°40' W 118°03'0 0.1
2014-Oct-22 03:33N 33°40' W 118°03'7 7.1
2014-Oct-22 02:33N 33°44' W 118°10'5 5.1
2014-Oct-22 01:30N 33°44' W 118°16'0 0.0
2014-Oct-22 00:33N 33°44' W 118°16'0 0.4
2014-Oct-21 23:33N 33°44' W 118°16'8 8.4
2014-Oct-21 22:33N 33°42' W 118°06'4 3.6
2014-Oct-21 21:33N 33°40' W 118°03'0 0.0
2014-Oct-21 20:24N 33°40' W 118°03'0 0.1
2014-Oct-21 19:30N 33°40' W 118°03'3 1.1
2014-Oct-21 17:07N 33°41' W 118°05'5 9.8
2014-Oct-21 16:33N 33°44' W 118°11'4 2.0
2014-Oct-21 14:30N 33°44' W 118°16'7 7.6
2014-Oct-21 13:31N 33°43' W 118°08'5 4.9
2014-Oct-21 12:28N 33°40' W 118°03'0 0.1
2014-Oct-21 11:28N 33°40' W 118°03'0 0.0
2014-Oct-21 10:21N 33°40' W 118°03'0 0.1
2014-Oct-21 09:31N 33°40' W 118°03'0 0.2
2014-Oct-21 08:32N 33°40' W 118°03'8 8.6
2014-Oct-21 07:33N 33°44' W 118°12'4 3.1
2014-Oct-21 06:18N 33°44' W 118°16'0 0.0
2014-Oct-21 05:27N 33°44' W 118°16'7 7.6
2014-Oct-21 04:33N 33°44' W 118°08'6 5.4
2014-Oct-21 03:26N 33°40' W 118°03'0 0.0
2014-Oct-21 02:13N 33°40' W 118°03'6 1.6
2014-Oct-20 22:33N 33°43' W 118°09'6 3.2
2014-Oct-20 20:33N 33°44' W 118°16'0 0.0
2014-Oct-20 19:22N 33°44' W 118°16'0 0.0
2014-Oct-20 18:33N 33°44' W 118°16'0 0.0
2014-Oct-20 13:32N 33°44' W 118°16'4 3.3
2014-Oct-20 12:18N 33°44' W 118°11'8 9.8
2014-Oct-20 11:32N 33°40' W 118°03'1 0.6
2014-Oct-20 10:33N 33°40' W 118°03'0 0.0
2014-Oct-20 09:33N 33°40' W 118°03'0 0.0
2014-Oct-20 08:33N 33°40' W 118°03'0 0.0
2014-Oct-20 07:33N 33°40' W 118°03'0 0.0
2014-Oct-20 05:13N 33°40' W 118°03'3 4.7
2014-Oct-20 04:30N 33°41' W 118°06'8 8.8
2014-Oct-20 03:33N 33°43' W 118°16'1 0.8
2014-Oct-20 02:33N 33°44' W 118°16'0 0.1
2014-Oct-20 01:33N 33°44' W 118°16'4 3.3
2014-Oct-20 00:26N 33°44' W 118°12'7 8.4
2014-Oct-19 23:33N 33°40' W 118°04'1 0.2
2014-Oct-19 18:33N 33°40' W 118°03'0 0.1
2014-Oct-19 17:06N 33°40' W 118°03'5 8.7
2014-Oct-19 16:33N 33°43' W 118°07'8 7.7
2014-Oct-19 15:32N 33°44' W 118°16'0 0.1
2014-Oct-19 14:31N 33°44' W 118°16'0 0.0
2014-Oct-19 12:12N 33°44' W 118°16'4 6.5
2014-Oct-19 11:33N 33°44' W 118°11'8 7.3
2014-Oct-19 10:27N 33°40' W 118°03'0 0.1
2014-Oct-19 09:30N 33°40' W 118°03'0 0.0
2014-Oct-19 08:33N 33°40' W 118°03'0 0.0
2014-Oct-19 07:33N 33°40' W 118°03'0 0.0
2014-Oct-19 06:32N 33°40' W 118°03'0 0.0
2014-Oct-19 05:29N 33°40' W 118°03'10 4.9
2014-Oct-19 03:30N 33°42' W 118°14'3 3.0
2014-Oct-19 02:32N 33°44' W 118°16'0 0.0
2014-Oct-19 01:32N 33°44' W 118°16'5 4.6
2014-Oct-19 00:33N 33°44' W 118°11'8 6.5
2014-Oct-18 23:20N 33°40' W 118°03'0 0.0
2014-Oct-18 18:08N 33°40' W 118°03'4 6.4
2014-Oct-18 17:33N 33°42' W 118°06'8 8.0
2014-Oct-18 16:30N 33°43' W 118°16'1 0.4
2014-Oct-18 14:25N 33°44' W 118°16'0 0.0
2014-Oct-18 13:25N 33°44' W 118°16'6 7.4
2014-Oct-18 12:33N 33°42' W 118°09'6 4.4
2014-Oct-18 11:16N 33°40' W 118°03'0 0.0
2014-Oct-18 10:32N 33°40' W 118°03'0 0.0
2014-Oct-18 09:25N 33°40' W 118°03'0 0.0
2014-Oct-18 08:18N 33°40' W 118°03'0 0.0
2014-Oct-18 06:19N 33°40' W 118°03'0 0.0
2014-Oct-18 05:24N 33°40' W 118°03'8 9.3
2014-Oct-18 04:33N 33°43' W 118°11'4 1.8
2014-Oct-18 02:09N 33°44' W 118°16'0 0.1
2014-Oct-18 01:24N 33°44' W 118°16'6 7.5
2014-Oct-18 00:33N 33°44' W 118°09'6 1.0
2014-Oct-17 18:18N 33°40' W 118°03'5 7.2
2014-Oct-17 17:33N 33°43' W 118°08'7 7.1
2014-Oct-17 16:32N 33°44' W 118°16'0 0.1
2014-Oct-17 15:33N 33°44' W 118°16'0 0.0
2014-Oct-17 02:16N 33°44' W 118°16'3 3.5
2014-Oct-17 01:29N 33°43' W 118°13'8 8.9
2014-Oct-17 00:33N 33°41' W 118°04'1 0.8
2014-Oct-16 23:05N 33°40' W 118°03'0 0.0
2014-Oct-16 21:29N 33°40' W 118°03'0 0.1
2014-Oct-16 20:31N 33°40' W 118°03'2 2.5
2014-Oct-16 19:33N 33°41' W 118°05'9 8.1
2014-Oct-16 18:24N 33°43' W 118°16'1 1.1
2014-Oct-16 17:32N 33°44' W 118°16'0 0.0
2014-Oct-16 16:33N 33°44' W 118°16'0 0.0
2014-Oct-16 09:23N 33°44' W 118°16'12 5.7
2014-Oct-16 07:17N 33°40' W 118°03'0 0.0
2014-Oct-16 06:31N 33°40' W 118°03'0 0.0
2014-Oct-16 05:26N 33°40' W 118°03'12 6.3
2014-Oct-16 03:32N 33°44' W 118°16'0 0.1
2014-Oct-16 01:32N 33°44' W 118°16'8 7.9
2014-Oct-16 00:33N 33°43' W 118°07'5 1.0
2014-Oct-15 19:29N 33°40' W 118°03'3 2.8
2014-Oct-15 18:33N 33°41' W 118°05'8 7.7
2014-Oct-15 17:32N 33°43' W 118°14'2 1.9
2014-Oct-15 16:31N 33°44' W 118°16'1 0.2
2014-Oct-15 13:19N 33°43' W 118°16'12 6.7
2014-Oct-15 11:32N 33°40' W 118°03'8 0.8
2014-Oct-15 01:23N 33°44' W 118°12'8 1.7
2014-Oct-14 20:28N 33°40' W 118°03'7 8.0
2014-Oct-14 19:33N 33°44' W 118°10'5 5.0
2014-Oct-14 18:29N 33°44' W 118°16'  

Dump ship's entire track history